Time;durP1;ratioP1;P1;durP2;ratioP2;P2;SDS_P1;SDS_P2;PMS_P1;PMS_P2;Temp;Humidity;BMP_temperature;BMP_pressure;BME280_temperature;BME280_humidity;BME280_pressure;Samples;Min_cycle;Max_cycle;Signal;HPM_P1;HPM_P2
2023/08/02 00:02:14;;;;;;;8.52;3.70;;;;;;;14.44;89.79;99955.41;5021775;28;20088;-75
2023/08/02 00:04:39;;;;;;;10.52;4.22;;;;;;;14.49;89.39;99952.78;5021338;28;20374;-75
2023/08/02 00:07:05;;;;;;;6.75;3.78;;;;;;;14.54;89.18;99961.00;5021394;28;20040;-75
2023/08/02 00:09:30;;;;;;;8.02;3.92;;;;;;;14.51;89.45;99956.06;5027801;28;20036;-75
2023/08/02 00:11:56;;;;;;;10.93;4.00;;;;;;;14.58;89.38;99953.19;5015402;28;20068;-75
2023/08/02 00:14:21;;;;;;;10.82;3.83;;;;;;;14.55;89.21;99952.66;5029718;28;20022;-75
2023/08/02 00:16:47;;;;;;;6.65;3.63;;;;;;;14.56;89.42;99943.44;5028148;28;20449;-75
2023/08/02 00:19:12;;;;;;;6.35;3.97;;;;;;;14.49;89.51;99948.19;5029991;28;20033;-75
2023/08/02 00:21:37;;;;;;;6.55;3.80;;;;;;;14.50;90.24;99938.16;5024837;28;20025;-74
2023/08/02 00:24:03;;;;;;;8.25;4.40;;;;;;;14.46;90.40;99940.56;5025937;28;20033;-74
2023/08/02 00:26:29;;;;;;;8.15;3.80;;;;;;;14.41;90.91;99932.34;5026106;28;20029;-74
2023/08/02 00:28:54;;;;;;;8.57;4.18;;;;;;;14.35;91.18;99920.59;5027204;28;21574;-77
2023/08/02 00:31:19;;;;;;;10.32;3.88;;;;;;;14.26;91.82;99911.25;5023049;28;20393;-77
2023/08/02 00:33:45;;;;;;;8.15;3.92;;;;;;;14.23;92.24;99915.25;5027783;28;20034;-77
2023/08/02 00:36:10;;;;;;;8.38;3.88;;;;;;;14.20;92.37;99904.13;5028603;28;20507;-77
2023/08/02 00:38:36;;;;;;;7.45;3.80;;;;;;;14.13;92.93;99906.13;5029380;28;20566;-77
2023/08/02 00:41:02;;;;;;;9.85;3.92;;;;;;;14.09;93.21;99905.81;5025726;28;20030;-76
2023/08/02 00:43:28;;;;;;;8.77;4.00;;;;;;;14.14;93.38;99907.78;5025033;28;20022;-76
2023/08/02 00:45:53;;;;;;;6.50;3.40;;;;;;;14.10;93.10;99905.59;5021520;28;20099;-76
2023/08/02 00:48:19;;;;;;;7.93;3.78;;;;;;;14.08;93.56;99899.59;5009657;28;20030;-76
2023/08/02 00:50:44;;;;;;;9.88;3.90;;;;;;;14.10;93.59;99900.19;5024398;28;20117;-76
2023/08/02 00:53:10;;;;;;;7.93;3.70;;;;;;;14.07;93.83;99899.81;5019070;28;20079;-77
2023/08/02 00:55:36;;;;;;;7.32;3.50;;;;;;;14.06;93.95;99907.13;5004890;28;20472;-76
2023/08/02 00:58:01;;;;;;;8.30;3.47;;;;;;;14.02;94.48;99910.56;5007879;28;20040;-76
2023/08/02 01:00:27;;;;;;;6.85;3.40;;;;;;;14.02;94.20;99907.88;5022241;28;20030;-76
2023/08/02 01:02:53;;;;;;;6.25;3.35;;;;;;;13.99;94.53;99898.34;5022850;28;20042;-75
2023/08/02 01:05:20;;;;;;;6.38;3.30;;;;;;;14.00;94.65;99897.28;4994435;28;20520;-76
2023/08/02 01:07:56;;;;;;;8.07;3.60;;;;;;;13.98;94.76;99891.28;4998043;28;20030;-76
2023/08/02 01:10:27;;;;;;;7.72;3.47;;;;;;;13.91;95.05;99898.75;5008240;28;20034;-75
2023/08/02 01:12:54;;;;;;;6.97;3.22;;;;;;;13.89;95.51;99890.03;5022148;28;20079;-76
2023/08/02 01:15:20;;;;;;;5.28;3.40;;;;;;;13.90;95.67;99887.09;5008219;28;20072;-76
2023/08/02 01:17:45;;;;;;;6.82;3.45;;;;;;;13.87;95.84;99876.75;5023800;28;20033;-76
2023/08/02 01:20:11;;;;;;;10.95;3.78;;;;;;;13.84;96.03;99882.66;5006787;28;20508;-76
2023/08/02 01:22:36;;;;;;;5.88;3.30;;;;;;;13.84;96.56;99881.84;5028849;28;20029;-76
2023/08/02 01:25:05;;;;;;;8.70;3.35;;;;;;;13.88;96.41;99888.41;5020910;28;20392;-76
2023/08/02 01:27:35;;;;;;;7.05;3.22;;;;;;;13.89;96.38;99892.75;4998473;28;20065;-76
2023/08/02 01:30:01;;;;;;;7.80;3.50;;;;;;;13.95;96.30;99894.47;5020696;28;20047;-75
2023/08/02 01:32:26;;;;;;;8.52;3.88;;;;;;;13.97;96.36;99896.94;4998188;28;20037;-76
2023/08/02 01:34:52;;;;;;;4.13;3.10;;;;;;;14.00;96.55;99891.84;5007799;28;20048;-75
2023/08/02 01:37:20;;;;;;;6.43;3.10;;;;;;;14.02;96.36;99889.75;5016992;28;20017;-74
2023/08/02 01:39:45;;;;;;;6.20;3.50;;;;;;;14.07;95.86;99887.13;5010688;28;20052;-75
2023/08/02 01:42:11;;;;;;;7.28;3.38;;;;;;;14.04;96.08;99884.91;5020923;28;20520;-75
2023/08/02 01:44:37;;;;;;;6.53;3.20;;;;;;;14.05;96.22;99889.25;5029759;28;20044;-75
2023/08/02 01:47:02;;;;;;;5.05;3.28;;;;;;;14.09;96.11;99884.16;5024623;28;20030;-76
2023/08/02 01:49:29;;;;;;;5.28;2.88;;;;;;;14.07;96.17;99887.13;5022970;28;20083;-75
2023/08/02 01:51:54;;;;;;;8.65;3.58;;;;;;;14.06;96.28;99885.50;5021840;28;20029;-75
2023/08/02 01:54:19;;;;;;;6.68;3.67;;;;;;;14.07;96.21;99894.41;5014195;28;20371;-75
2023/08/02 01:56:45;;;;;;;6.72;3.53;;;;;;;14.08;96.30;99899.59;5021345;28;20527;-75
2023/08/02 01:59:12;;;;;;;7.00;3.13;;;;;;;14.02;96.52;99895.16;5028453;28;20028;-75
2023/08/02 02:01:38;;;;;;;6.53;3.70;;;;;;;13.95;97.09;99867.41;5021957;28;20486;-75
2023/08/02 02:04:04;;;;;;;5.68;3.00;;;;;;;13.92;97.46;99867.91;5019651;28;20658;-75
2023/08/02 02:06:30;;;;;;;8.52;3.53;;;;;;;13.87;97.78;99860.50;5037512;28;20017;-75
2023/08/02 02:08:56;;;;;;;6.95;3.28;;;;;;;13.86;98.11;99855.34;5036075;28;20078;-75
2023/08/02 02:11:21;;;;;;;5.90;3.08;;;;;;;13.84;98.15;99847.50;5024189;28;20443;-75
2023/08/02 02:13:47;;;;;;;4.65;3.15;;;;;;;13.76;98.60;99848.72;5024904;28;20034;-75
2023/08/02 02:16:15;;;;;;;5.75;2.95;;;;;;;13.76;98.89;99843.31;5025136;28;20029;-75
2023/08/02 02:18:40;;;;;;;6.00;3.30;;;;;;;13.74;99.21;99845.44;5024330;28;20049;-75
2023/08/02 02:21:05;;;;;;;5.53;3.15;;;;;;;13.74;99.20;99841.88;5025865;28;20033;-75
2023/08/02 02:23:31;;;;;;;4.90;3.05;;;;;;;13.69;99.38;99833.66;5019912;28;20041;-75
2023/08/02 02:25:56;;;;;;;5.25;3.00;;;;;;;13.71;99.75;99826.13;5021534;28;20022;-75
2023/08/02 02:28:22;;;;;;;4.88;3.00;;;;;;;13.73;99.91;99832.97;5016582;28;20469;-75
2023/08/02 02:30:48;;;;;;;5.13;2.90;;;;;;;13.76;99.69;99827.06;5029065;28;20710;-75
2023/08/02 02:33:13;;;;;;;6.20;3.28;;;;;;;13.78;99.65;99813.28;5016514;28;20053;-75
2023/08/02 02:35:39;;;;;;;6.03;3.25;;;;;;;13.64;99.94;99805.50;5026885;28;20488;-75
2023/08/02 02:38:04;;;;;;;4.65;3.10;;;;;;;13.67;100.00;99803.38;5021075;28;20018;-75
2023/08/02 02:40:29;;;;;;;8.38;3.70;;;;;;;13.61;100.00;99802.44;5017435;28;20065;-75
2023/08/02 02:42:55;;;;;;;5.90;3.47;;;;;;;13.54;100.00;99801.78;5015497;28;20038;-75
2023/08/02 02:45:20;;;;;;;6.03;3.28;;;;;;;13.48;100.00;99785.47;5027608;28;20040;-75
2023/08/02 02:47:45;;;;;;;5.97;3.50;;;;;;;13.49;100.00;99776.28;5019552;28;20034;-75
2023/08/02 02:50:11;;;;;;;5.63;3.38;;;;;;;13.43;100.00;99762.91;5030873;28;20036;-75
2023/08/02 02:52:36;;;;;;;5.43;3.42;;;;;;;13.41;100.00;99756.94;5028127;28;20045;-75
2023/08/02 02:55:02;;;;;;;5.03;3.50;;;;;;;13.33;100.00;99748.13;5023202;28;20042;-75
2023/08/02 02:57:27;;;;;;;7.72;3.75;;;;;;;13.28;100.00;99744.50;5022701;28;20029;-75
2023/08/02 02:59:53;;;;;;;5.85;3.28;;;;;;;13.34;100.00;99748.94;5024057;28;20042;-75
2023/08/02 03:02:19;;;;;;;8.32;3.63;;;;;;;13.37;100.00;99732.25;5022546;28;20064;-75
2023/08/02 03:04:44;;;;;;;5.43;3.53;;;;;;;13.45;100.00;99739.19;5023196;28;20528;-75
2023/08/02 03:07:09;;;;;;;5.90;3.40;;;;;;;13.44;100.00;99742.94;5022736;28;20044;-75
2023/08/02 03:09:35;;;;;;;7.40;3.35;;;;;;;13.45;100.00;99734.56;5031540;28;20061;-76
2023/08/02 03:12:00;;;;;;;5.90;3.15;;;;;;;13.52;100.00;99733.59;5029791;28;20040;-75
2023/08/02 03:14:27;;;;;;;10.82;3.28;;;;;;;13.58;100.00;99727.22;5021775;28;20025;-75
2023/08/02 03:16:52;;;;;;;4.60;3.05;;;;;;;13.56;100.00;99719.34;5024770;28;20022;-75
2023/08/02 03:19:17;;;;;;;6.28;2.90;;;;;;;13.59;100.00;99716.16;5027761;28;20393;-75
2023/08/02 03:21:43;;;;;;;4.90;3.30;;;;;;;13.62;100.00;99722.94;5028409;28;20026;-75
2023/08/02 03:24:09;;;;;;;5.68;3.22;;;;;;;13.55;100.00;99722.31;5021593;28;20041;-76
2023/08/02 03:26:34;;;;;;;4.30;3.03;;;;;;;13.66;100.00;99707.88;5023927;28;20022;-76
2023/08/02 03:28:59;;;;;;;4.82;2.90;;;;;;;13.70;100.00;99709.03;5023395;28;20040;-75
2023/08/02 03:31:25;;;;;;;5.78;3.20;;;;;;;13.64;100.00;99710.00;5026570;28;20493;-75
2023/08/02 03:33:50;;;;;;;6.20;2.90;;;;;;;13.70;100.00;99708.19;5029390;28;20029;-75
2023/08/02 03:36:16;;;;;;;4.47;3.05;;;;;;;13.73;100.00;99708.56;5030929;28;20433;-75
2023/08/02 03:38:42;;;;;;;7.15;3.30;;;;;;;13.80;100.00;99703.78;5031550;28;20024;-75
2023/08/02 03:41:08;;;;;;;5.28;2.92;;;;;;;13.82;100.00;99694.59;5028598;28;20029;-75
2023/08/02 03:43:33;;;;;;;6.25;3.60;;;;;;;13.89;100.00;99681.72;5026179;28;20163;-75
2023/08/02 03:45:58;;;;;;;5.25;3.10;;;;;;;13.84;100.00;99687.88;5022128;28;20025;-76
2023/08/02 03:48:25;;;;;;;4.35;2.90;;;;;;;13.87;100.00;99673.03;5031044;28;20084;-75
2023/08/02 03:50:50;;;;;;;6.28;3.85;;;;;;;13.85;100.00;99667.88;5028663;28;20033;-75
2023/08/02 03:53:16;;;;;;;4.82;3.22;;;;;;;13.89;100.00;99668.19;5018874;28;20022;-75
2023/08/02 03:55:41;;;;;;;5.20;3.00;;;;;;;14.02;100.00;99667.84;5024306;28;20032;-76
2023/08/02 03:58:07;;;;;;;6.22;2.83;;;;;;;14.04;100.00;99665.72;5029888;28;20030;-75
2023/08/02 04:00:32;;;;;;;4.95;2.97;;;;;;;14.04;100.00;99660.31;5017578;28;20036;-75
2023/08/02 04:02:57;;;;;;;7.50;3.28;;;;;;;14.02;100.00;99667.03;5028061;28;20060;-75
2023/08/02 04:05:23;;;;;;;8.05;3.22;;;;;;;14.04;100.00;99660.31;5022417;28;20026;-76
2023/08/02 04:07:48;;;;;;;5.00;2.80;;;;;;;14.07;100.00;99659.81;5028489;28;20389;-78
2023/08/02 04:10:14;;;;;;;5.30;3.08;;;;;;;14.10;100.00;99663.88;5026143;28;20044;-76
2023/08/02 04:12:39;;;;;;;4.55;3.22;;;;;;;14.03;100.00;99666.78;5024535;28;20257;-76
2023/08/02 04:15:05;;;;;;;5.32;3.10;;;;;;;14.07;100.00;99657.09;5030808;28;20407;-77
2023/08/02 04:17:30;;;;;;;6.38;2.92;;;;;;;14.15;100.00;99657.72;5022776;28;20529;-76
2023/08/02 04:19:56;;;;;;;6.53;3.00;;;;;;;14.16;100.00;99648.53;5024272;28;20038;-82
2023/08/02 04:22:21;;;;;;;8.02;3.10;;;;;;;14.16;100.00;99648.53;5024521;28;20033;-74
2023/08/02 04:24:50;;;;;;;6.30;2.88;;;;;;;14.13;100.00;99644.44;5028635;28;20481;-74
2023/08/02 04:27:16;;;;;;;5.03;2.80;;;;;;;14.16;100.00;99632.28;5026207;28;20477;-74
2023/08/02 04:29:43;;;;;;;5.68;2.90;;;;;;;14.22;100.00;99631.31;5024914;28;20084;-75
2023/08/02 04:32:09;;;;;;;6.47;2.75;;;;;;;14.16;100.00;99626.88;5028471;28;20025;-74
2023/08/02 04:34:36;;;;;;;4.72;2.80;;;;;;;14.24;100.00;99627.25;5014364;28;20038;-74
2023/08/02 04:37:01;;;;;;;7.07;2.85;;;;;;;14.34;100.00;99615.75;5023718;28;20036;-74
2023/08/02 04:39:28;;;;;;;6.13;3.00;;;;;;;14.32;100.00;99604.34;5020664;28;20045;-74
2023/08/02 04:41:57;;;;;;;6.82;2.92;;;;;;;14.34;100.00;99606.81;5019229;28;20117;-74
2023/08/02 04:44:24;;;;;;;6.18;2.80;;;;;;;14.42;100.00;99600.94;5024857;28;20071;-74
2023/08/02 04:46:49;;;;;;;5.63;2.60;;;;;;;14.52;99.80;99598.38;5020077;28;20026;-74
2023/08/02 04:49:15;;;;;;;5.18;2.95;;;;;;;14.55;99.84;99589.72;5028578;28;20056;-74
2023/08/02 04:51:40;;;;;;;7.30;2.88;;;;;;;14.56;100.00;99575.09;5016421;28;20033;-74
2023/08/02 04:54:05;;;;;;;7.05;3.10;;;;;;;14.49;100.00;99581.78;5017644;28;20029;-74
2023/08/02 04:56:31;;;;;;;5.25;2.95;;;;;;;14.49;100.00;99576.38;5021835;28;20141;-75
2023/08/02 04:58:57;;;;;;;4.55;2.70;;;;;;;14.47;100.00;99549.56;5027823;28;20028;-74
2023/08/02 05:01:22;;;;;;;8.00;3.28;;;;;;;14.42;100.00;99551.41;5019500;28;20042;-74
2023/08/02 05:03:48;;;;;;;5.65;2.40;;;;;;;14.51;100.00;99544.44;5014301;28;20481;-74
2023/08/02 05:06:13;;;;;;;5.38;2.58;;;;;;;14.50;100.00;99537.38;5025671;28;20018;-74
2023/08/02 05:08:38;;;;;;;5.55;2.50;;;;;;;14.56;100.00;99537.19;5026231;28;20465;-74
2023/08/02 05:11:05;;;;;;;4.88;2.80;;;;;;;14.57;100.00;99538.00;5031067;28;20029;-74
2023/08/02 05:13:30;;;;;;;5.20;2.80;;;;;;;14.50;100.00;99534.69;5043956;28;20088;-73
2023/08/02 05:15:56;;;;;;;5.22;2.60;;;;;;;14.52;100.00;99524.41;5035137;28;20017;-74
2023/08/02 05:18:21;;;;;;;5.35;2.55;;;;;;;14.50;100.00;99526.56;5028397;28;20080;-74
2023/08/02 05:20:47;;;;;;;4.10;2.60;;;;;;;14.56;100.00;99514.72;5019753;28;20504;-74
2023/08/02 05:23:12;;;;;;;5.63;2.75;;;;;;;14.55;100.00;99513.06;5028277;28;20025;-74
2023/08/02 05:25:38;;;;;;;5.70;2.55;;;;;;;14.54;99.90;99514.16;5019622;28;20041;-74
2023/08/02 05:28:03;;;;;;;3.20;2.20;;;;;;;14.61;99.27;99514.78;5018827;28;20033;-74
2023/08/02 05:30:30;;;;;;;4.70;2.20;;;;;;;14.60;98.87;99496.06;5026708;28;20480;-74
2023/08/02 05:32:55;;;;;;;4.57;2.22;;;;;;;14.61;98.59;99484.97;5011356;28;20030;-74
2023/08/02 05:35:21;;;;;;;5.03;2.30;;;;;;;14.51;99.57;99485.69;5020452;28;20035;-74
2023/08/02 05:37:47;;;;;;;3.22;2.03;;;;;;;14.46;99.79;99476.72;5026925;28;20342;-74
2023/08/02 05:40:13;;;;;;;6.05;2.85;;;;;;;14.48;99.98;99479.97;5006407;28;20051;-74
2023/08/02 05:42:41;;;;;;;6.72;2.80;;;;;;;14.43;100.00;99482.63;5002361;28;20037;-74
2023/08/02 05:45:06;;;;;;;6.78;2.45;;;;;;;14.47;100.00;99468.31;5029625;28;20040;-74
2023/08/02 05:47:32;;;;;;;3.45;2.33;;;;;;;14.46;100.00;99465.88;5001980;28;20066;-74
2023/08/02 05:49:57;;;;;;;4.60;2.80;;;;;;;14.47;100.00;99445.88;5020756;28;20492;-74
2023/08/02 05:52:24;;;;;;;6.25;3.15;;;;;;;14.44;100.00;99446.38;5024961;28;20087;-74
2023/08/02 05:54:50;;;;;;;7.03;2.92;;;;;;;14.54;100.00;99435.63;5022857;28;20030;-74
2023/08/02 05:57:15;;;;;;;5.53;3.13;;;;;;;14.54;100.00;99435.63;5023212;28;20044;-74
2023/08/02 05:59:40;;;;;;;4.43;2.88;;;;;;;14.58;100.00;99442.16;5015744;28;20528;-73
2023/08/02 06:02:06;;;;;;;5.10;2.90;;;;;;;14.57;100.00;99435.09;5022313;28;20041;-74
2023/08/02 06:04:39;;;;;;;5.57;3.20;;;;;;;14.61;100.00;99438.94;5023812;28;20381;-74
2023/08/02 06:07:10;;;;;;;8.27;3.00;;;;;;;14.66;99.38;99433.53;5018952;28;20034;-74
2023/08/02 06:09:35;;;;;;;4.22;3.00;;;;;;;14.68;99.25;99420.59;5020834;28;20044;-73
2023/08/02 06:12:01;;;;;;;7.28;2.90;;;;;;;14.75;99.27;99414.94;5018793;28;20355;-75
2023/08/02 06:14:28;;;;;;;5.78;3.25;;;;;;;14.73;99.43;99413.59;5019513;28;20053;-73
2023/08/02 06:16:53;;;;;;;5.20;3.35;;;;;;;14.66;100.00;99408.34;5025477;28;20037;-73
2023/08/02 06:19:18;;;;;;;5.70;3.10;;;;;;;14.69;100.00;99405.97;5021465;28;20025;-73
2023/08/02 06:21:44;;;;;;;7.18;3.38;;;;;;;14.69;100.00;99391.63;5027275;28;20025;-73
2023/08/02 06:24:09;;;;;;;5.63;3.30;;;;;;;14.71;100.00;99375.94;5003497;28;20029;-75
2023/08/02 06:26:35;;;;;;;7.55;3.70;;;;;;;14.70;100.00;99382.44;5025425;28;20098;-73
2023/08/02 06:29:01;;;;;;;8.35;3.85;;;;;;;14.66;100.00;99379.38;5013546;28;20034;-75
2023/08/02 06:31:26;;;;;;;6.80;3.80;;;;;;;14.70;100.00;99387.84;5032011;28;20031;-74
2023/08/02 06:33:52;;;;;;;6.05;3.53;;;;;;;14.63;100.00;99384.50;5024407;28;20129;-74
2023/08/02 06:36:18;;;;;;;8.55;3.65;;;;;;;14.65;100.00;99380.44;5030794;28;20323;-74
2023/08/02 06:38:46;;;;;;;8.13;3.80;;;;;;;14.67;100.00;99380.19;5035007;28;20051;-74
2023/08/02 06:41:12;;;;;;;6.97;4.07;;;;;;;14.66;100.00;99384.78;5048880;28;20033;-73
2023/08/02 06:43:37;;;;;;;8.68;3.60;;;;;;;14.66;100.00;99371.25;5033163;28;20083;-74
2023/08/02 06:46:02;;;;;;;6.10;3.70;;;;;;;14.56;100.00;99352.22;5027356;28;20030;-74
2023/08/02 06:48:28;;;;;;;8.27;3.60;;;;;;;14.59;100.00;99351.72;5026104;28;20033;-75
2023/08/02 06:50:54;;;;;;;7.13;4.10;;;;;;;14.51;100.00;99344.91;5033878;28;20440;-75
2023/08/02 06:53:19;;;;;;;8.60;3.80;;;;;;;14.48;100.00;99339.16;5032500;28;20097;-77
2023/08/02 06:55:45;;;;;;;7.07;4.00;;;;;;;14.40;100.00;99340.47;5029077;28;20022;-77
2023/08/02 06:58:10;;;;;;;8.23;4.10;;;;;;;14.47;100.00;99327.53;5043307;28;20037;-78
2023/08/02 07:00:37;;;;;;;6.82;3.92;;;;;;;14.46;100.00;99314.25;5030490;28;20084;-78
2023/08/02 07:03:03;;;;;;;6.38;4.03;;;;;;;14.39;100.00;99312.59;5033079;28;20404;-79
2023/08/02 07:05:29;;;;;;;7.25;4.00;;;;;;;14.43;100.00;99312.88;5032876;28;20026;-79
2023/08/02 07:07:58;;;;;;;6.65;4.22;;;;;;;14.42;100.00;99300.41;5028013;28;20036;-79
2023/08/02 07:10:24;;;;;;;6.47;4.10;;;;;;;14.48;100.00;99296.66;5024063;28;20030;-79
2023/08/02 07:12:49;;;;;;;6.45;3.88;;;;;;;14.51;100.00;99290.75;5025453;28;20043;-79
2023/08/02 07:17:49;;;;;;;8.10;4.00;;;;;;;14.67;100.00;99272.66;5044480;28;20052;-80
2023/08/02 07:20:15;;;;;;;5.70;3.70;;;;;;;14.69;100.00;99275.97;5045711;28;20535;-80
2023/08/02 07:22:44;;;;;;;6.55;3.90;;;;;;;14.74;100.00;99271.66;5053708;28;20078;-80
2023/08/02 07:25:10;;;;;;;5.60;4.15;;;;;;;14.73;100.00;99260.00;5053857;28;20511;-80
2023/08/02 07:27:42;;;;;;;4.22;3.58;;;;;;;14.80;100.00;99254.34;5045643;28;20029;-81
2023/08/02 07:30:08;;;;;;;5.18;3.78;;;;;;;14.84;100.00;99239.19;5049788;28;20033;-81
2023/08/02 07:32:33;;;;;;;4.93;3.60;;;;;;;14.86;100.00;99242.44;5057645;22;20478;-82
2023/08/02 07:34:58;;;;;;;6.70;3.53;;;;;;;14.86;100.00;99234.31;5032960;28;20026;-82
2023/08/02 07:37:24;;;;;;;5.55;3.67;;;;;;;14.79;100.00;99231.06;5038514;28;20025;-83
2023/08/02 07:39:50;;;;;;;4.32;3.58;;;;;;;14.81;100.00;99229.69;5043559;28;20067;-83
2023/08/02 07:42:15;;;;;;;5.70;4.00;;;;;;;14.73;100.00;99224.81;5038812;28;20029;-82
2023/08/02 07:44:40;;;;;;;6.15;3.92;;;;;;;14.79;100.00;99223.72;5015746;28;20036;-82
2023/08/02 07:47:06;;;;;;;5.93;3.72;;;;;;;14.84;100.00;99201.25;5048295;28;20136;-82
2023/08/02 07:49:32;;;;;;;5.85;4.05;;;;;;;14.79;100.00;99199.34;5052266;28;20021;-83
2023/08/02 07:51:58;;;;;;;5.75;4.18;;;;;;;14.75;100.00;99189.31;5038230;28;20032;-81
2023/08/02 07:54:24;;;;;;;6.60;5.45;;;;;;;14.81;100.00;99180.13;5046099;28;20097;-82
2023/08/02 07:56:49;;;;;;;6.55;4.75;;;;;;;14.77;100.00;99168.19;5032681;28;20029;-82
2023/08/02 07:59:14;;;;;;;7.65;4.43;;;;;;;14.73;100.00;99158.97;5036183;28;20465;-82
2023/08/02 08:01:43;;;;;;;5.43;4.10;;;;;;;14.72;100.00;99160.03;5044880;28;20020;-83
2023/08/02 08:04:11;;;;;;;7.07;5.43;;;;;;;14.76;100.00;99144.91;5048797;28;20030;-83
2023/08/02 08:06:37;;;;;;;7.82;4.90;;;;;;;14.78;100.00;99140.03;5039375;28;20100;-84
2023/08/02 08:09:02;;;;;;;6.40;4.00;;;;;;;14.81;100.00;99125.94;5044463;28;20021;-86
2023/08/02 08:11:28;;;;;;;4.60;3.92;;;;;;;14.81;100.00;99109.69;5052567;28;20190;-84
2023/08/02 08:13:54;;;;;;;5.35;3.97;;;;;;;14.82;100.00;99124.88;5051943;28;20120;-85
2023/08/02 08:16:19;;;;;;;5.55;4.95;;;;;;;14.91;100.00;99108.91;5035413;28;20025;-83
2023/08/02 08:18:45;;;;;;;4.43;4.03;;;;;;;14.89;100.00;99106.44;5048490;28;20029;-83
2023/08/02 08:21:13;;;;;;;4.70;4.30;;;;;;;14.92;100.00;99103.22;5050877;28;20013;-82
2023/08/02 08:23:39;;;;;;;5.38;4.03;;;;;;;14.96;100.00;99109.72;5049420;28;20029;-83
2023/08/02 08:26:04;;;;;;;4.57;3.67;;;;;;;15.03;100.00;99105.91;5052103;28;20040;-83
2023/08/02 08:28:30;;;;;;;3.85;3.42;;;;;;;15.06;100.00;99105.38;5054277;28;20032;-83
2023/08/02 08:31:02;;;;;;;15.32;13.75;;;;;;;15.13;100.00;99108.66;5028006;28;20037;-84
2023/08/02 08:33:28;;;;;;;4.45;3.90;;;;;;;15.18;100.00;99102.41;5041475;28;20048;-85
2023/08/02 08:35:54;;;;;;;3.88;3.08;;;;;;;15.18;100.00;99092.38;5062241;28;20021;-83
2023/08/02 08:38:23;;;;;;;4.43;3.45;;;;;;;15.19;100.00;99083.16;5052079;28;20030;-82
2023/08/02 08:40:50;;;;;;;3.17;2.88;;;;;;;15.18;100.00;99081.53;5051552;28;20154;-84
2023/08/02 08:43:16;;;;;;;3.20;2.90;;;;;;;15.35;100.00;99072.31;5054507;28;20045;-84
2023/08/02 08:45:41;;;;;;;3.33;2.95;;;;;;;15.28;100.00;99065.28;5028470;28;20051;-83
2023/08/02 08:48:13;;;;;;;3.47;2.90;;;;;;;15.28;100.00;99054.44;5040546;28;20031;-82
2023/08/02 08:50:42;;;;;;;2.65;2.45;;;;;;;15.34;100.00;99051.72;5049807;28;20051;-83
2023/08/02 08:53:09;;;;;;;6.30;5.60;;;;;;;15.39;100.00;99040.84;5046834;28;20124;-83
2023/08/02 08:55:34;;;;;;;3.38;2.85;;;;;;;15.36;100.00;99036.78;5031220;28;20037;-84
2023/08/02 08:58:00;;;;;;;3.17;2.88;;;;;;;15.49;100.00;99043.56;5017584;28;20083;-80
2023/08/02 09:00:25;;;;;;;3.10;2.47;;;;;;;15.60;100.00;99033.50;5040030;28;20076;-83
2023/08/02 09:02:51;;;;;;;3.08;2.28;;;;;;;15.61;100.00;99025.06;5036059;28;20024;-84
2023/08/02 09:05:19;;;;;;;2.75;2.55;;;;;;;15.65;100.00;99013.69;5026235;28;20033;-83
2023/08/02 09:07:45;;;;;;;2.40;2.20;;;;;;;15.72;100.00;99019.59;5029444;28;20373;-84
2023/08/02 09:10:10;;;;;;;2.80;2.60;;;;;;;15.68;100.00;99013.13;5047350;28;20465;-83
2023/08/02 09:12:44;;;;;;;2.60;2.40;;;;;;;15.77;100.00;98996.00;5040621;28;20033;-83
2023/08/02 09:15:10;;;;;;;2.45;2.25;;;;;;;15.71;100.00;99007.13;5038408;28;20039;-85
2023/08/02 09:17:55;;;;;;;2.22;2.13;;;;;;;15.66;100.00;99004.47;5048739;28;20033;-86
2023/08/02 09:20:27;;;;;;;3.08;2.13;;;;;;;15.66;100.00;98988.19;5051657;28;20063;-87
2023/08/02 09:22:54;;;;;;;2.30;2.10;;;;;;;15.70;100.00;98986.56;5035663;28;20037;-86
2023/08/02 09:25:26;;;;;;;2.40;2.20;;;;;;;15.63;100.00;98977.88;5037639;28;20104;-86
2023/08/02 09:28:00;;;;;;;2.50;2.30;;;;;;;15.74;100.00;98965.91;5039889;28;20025;-85
2023/08/02 09:30:27;;;;;;;2.70;2.50;;;;;;;15.76;100.00;98971.84;5031881;28;20040;-84
2023/08/02 09:33:06;;;;;;;2.67;2.47;;;;;;;15.85;100.00;98974.81;5028918;28;20041;-86
2023/08/02 09:35:35;;;;;;;2.40;2.20;;;;;;;15.87;100.00;98961.81;5041057;28;20033;-85
2023/08/02 09:38:07;;;;;;;2.70;2.50;;;;;;;15.87;100.00;98962.63;5013751;28;20036;-85
2023/08/02 09:40:35;;;;;;;2.47;2.30;;;;;;;15.95;100.00;98976.69;5020481;28;20053;-84
2023/08/02 09:43:09;;;;;;;3.20;2.90;;;;;;;15.93;100.00;98962.59;5054277;28;20070;-84
2023/08/02 09:45:36;;;;;;;2.95;2.75;;;;;;;15.96;100.00;98962.03;5035435;28;20056;-84
2023/08/02 09:48:03;;;;;;;3.20;3.00;;;;;;;15.92;100.00;98969.94;5038175;28;20037;-84
2023/08/02 09:50:28;;;;;;;3.10;2.90;;;;;;;15.93;100.00;98974.25;5045900;28;20044;-83
2023/08/02 09:52:54;;;;;;;3.80;3.38;;;;;;;15.97;100.00;98971.78;5041536;28;20422;-85
2023/08/02 09:55:20;;;;;;;3.50;3.20;;;;;;;15.97;100.00;98963.66;5049238;28;20495;-83
2023/08/02 09:57:47;;;;;;;3.65;3.35;;;;;;;16.09;100.00;98958.69;5041487;28;20095;-83
2023/08/02 10:00:13;;;;;;;3.83;3.53;;;;;;;16.25;100.00;98954.00;5051170;28;20044;-83
2023/08/02 10:02:38;;;;;;;3.70;3.38;;;;;;;16.36;100.00;98938.44;5049988;28;20489;-84
2023/08/02 10:05:06;;;;;;;3.50;3.30;;;;;;;16.41;100.00;98943.84;5043399;28;20091;-83
2023/08/02 10:07:48;;;;;;;3.78;3.47;;;;;;;16.47;100.00;98945.41;5045895;28;20451;-83
2023/08/02 10:10:25;;;;;;;4.00;3.40;;;;;;;16.57;100.00;98941.00;5032679;28;20021;-82
2023/08/02 10:13:06;;;;;;;3.50;3.20;;;;;;;16.67;100.00;98935.47;5044801;28;20200;-82
2023/08/02 10:15:31;;;;;;;3.70;3.40;;;;;;;16.68;100.00;98937.09;5044634;28;20101;-83
2023/08/02 10:17:58;;;;;;;3.72;3.42;;;;;;;16.75;100.00;98942.22;5012816;28;20194;-84
2023/08/02 10:20:24;;;;;;;4.10;3.80;;;;;;;16.88;100.00;98927.94;5056163;28;20486;-84
2023/08/02 10:22:49;;;;;;;4.15;3.85;;;;;;;16.99;100.00;98934.13;5015062;28;20362;-85
2023/08/02 10:25:16;;;;;;;4.25;3.85;;;;;;;17.10;100.00;98927.50;5016228;28;20025;-84
2023/08/02 10:27:42;;;;;;;3.45;3.20;;;;;;;17.18;100.00;98922.53;5018113;28;20033;-82
2023/08/02 10:30:07;;;;;;;3.38;3.17;;;;;;;17.47;100.00;98918.94;5028936;28;20141;-81
2023/08/02 10:32:33;;;;;;;2.95;2.75;;;;;;;18.16;100.00;98924.03;5004556;28;20494;-82
2023/08/02 10:34:59;;;;;;;2.50;2.30;;;;;;;19.03;99.91;98915.56;5031316;28;20032;-82
2023/08/02 10:37:45;;;;;;;2.50;1.90;;;;;;;19.26;97.12;98910.19;5044143;28;20032;-82
2023/08/02 10:40:10;;;;;;;1.85;1.75;;;;;;;19.20;95.92;98921.22;5049195;28;20029;-82
2023/08/02 10:43:02;;;;;;;1.95;1.85;;;;;;;19.12;96.92;98916.47;5048948;28;20036;-82
2023/08/02 10:45:28;;;;;;;1.70;1.60;;;;;;;19.43;96.05;98915.84;5038944;28;20032;-81
2023/08/02 10:47:53;;;;;;;1.90;1.77;;;;;;;19.72;94.84;98905.72;5051566;28;20033;-81
2023/08/02 10:50:48;;;;;;;1.70;1.60;;;;;;;19.96;91.59;98889.94;5017278;28;20029;-81
2023/08/02 10:53:13;;;;;;;1.95;1.85;;;;;;;19.88;91.99;98903.50;5050964;28;20029;-81
2023/08/02 10:56:03;;;;;;;1.80;1.70;;;;;;;19.92;91.44;98893.59;5048694;28;20033;-81
2023/08/02 10:58:44;;;;;;;1.85;1.75;;;;;;;20.26;93.33;98892.25;5045283;28;20560;-81
2023/08/02 11:01:12;;;;;;;1.90;1.70;;;;;;;20.37;90.20;98892.81;5046392;28;20079;-84
2023/08/02 11:03:38;;;;;;;3.13;1.77;;;;;;;20.24;91.37;98878.88;5049076;28;20044;-82
2023/08/02 11:06:03;;;;;;;1.55;1.45;;;;;;;20.38;91.95;98884.28;5003052;28;20037;-82
2023/08/02 11:08:29;;;;;;;1.70;1.60;;;;;;;20.57;92.89;98880.56;5053093;28;20021;-83
2023/08/02 11:10:57;;;;;;;1.60;1.50;;;;;;;20.87;90.41;98876.25;5048858;28;20025;-83
2023/08/02 11:13:23;;;;;;;1.58;1.48;;;;;;;21.25;87.89;98894.09;5054676;28;20071;-84
2023/08/02 11:16:02;;;;;;;1.70;1.60;;;;;;;20.96;85.07;98887.25;5065595;28;20489;-83
2023/08/02 11:18:30;;;;;;;2.03;1.80;;;;;;;21.00;88.82;98893.66;5053679;28;20108;-83
2023/08/02 11:21:12;;;;;;;1.90;1.80;;;;;;;21.41;88.20;98891.75;5019445;28;20035;-84
2023/08/02 11:23:37;;;;;;;1.95;1.63;;;;;;;21.83;84.58;98885.06;5054358;28;20112;-83
2023/08/02 11:26:13;;;;;;;2.35;1.60;;;;;;;21.89;84.93;98892.81;5052019;28;20425;-84
2023/08/02 11:28:43;;;;;;;1.73;1.63;;;;;;;21.64;83.70;98870.56;5041909;28;20048;-83